OTBD/DOH METAR and TAF weather

Enter ICAO airport designator
Station Type Date Time Source
OTBD METAR 2021/07/28 20:00 UTC NOAA

OTBD 282000Z 02002KT 8000 NSC 36/28 Q0993 NOSIG


Station Type Date Time Source
OTBD Decoded METAR 2021/07/28 20:00 UTC NOAA

Doha International Airport, Qatar (OTBD) 25-15N 051-34E 10M
Jul 28, 2021 - 04:00 PM EDT / 2021.07.28 2000 UTC
Wind: from the NNE (020 degrees) at 2 MPH (2 KT):0
Visibility: 4 mile(s):0
Temperature: 96 F (36 C)
Heat index: 118.9 F (48.3 C):1
Dew Point: 82 F (28 C)
Relative Humidity: 63%
Pressure (altimeter): 29.32 in. Hg (0993 hPa)
ob: OTBD 282000Z 02002KT 8000 NSC 36/28 Q0993 NOSIG
cycle: 20

Station Type Date Time Source
OTBD TAF 2021/07/28 18:06 UTC NOAA

TAF TAF OTBD 281701Z 2818/2924 VRB03KT 8000 NSC PROB30
TEMPO 2821/2903 5000 HZ
BECMG 2904/2906 35014KT CAVOK
TEMPO 2908/2911 03013KT

Example: see airport list